createdAt,value
2023-05-07T00:01:32.935Z,21.38
2023-05-07T00:03:59.427Z,21.35
2023-05-07T00:06:26.006Z,21.34
2023-05-07T00:08:52.319Z,21.27
2023-05-07T00:11:18.777Z,21.28
2023-05-07T00:13:45.131Z,21.29
2023-05-07T00:16:11.498Z,21.23
2023-05-07T00:18:37.880Z,21.28
2023-05-07T00:21:04.280Z,21.31
2023-05-07T00:23:30.639Z,21.33
2023-05-07T00:25:57.061Z,21.29
2023-05-07T00:28:23.458Z,21.19
2023-05-07T00:30:49.806Z,21.16
2023-05-07T00:33:16.174Z,21.13
2023-05-07T00:35:42.550Z,21.10
2023-05-07T00:38:08.891Z,21.07
2023-05-07T00:40:35.236Z,21.10
2023-05-07T00:43:01.575Z,21.17
2023-05-07T00:45:27.930Z,21.13
2023-05-07T00:47:54.306Z,21.14
2023-05-07T00:50:20.675Z,21.12
2023-05-07T00:52:47.031Z,21.08
2023-05-07T00:55:13.475Z,21.08
2023-05-07T00:57:39.894Z,21.07
2023-05-07T01:00:06.342Z,21.06
2023-05-07T01:02:32.783Z,21.02
2023-05-07T01:04:59.158Z,20.93
2023-05-07T01:07:25.879Z,20.88
2023-05-07T01:09:52.230Z,20.80
2023-05-07T01:12:18.615Z,20.73
2023-05-07T01:14:45.005Z,20.72
2023-05-07T01:17:11.384Z,20.71
2023-05-07T01:19:37.760Z,20.66
2023-05-07T01:22:04.095Z,20.61
2023-05-07T01:24:30.453Z,20.59
2023-05-07T01:26:56.768Z,20.60
2023-05-07T01:29:23.117Z,20.66
2023-05-07T01:31:49.493Z,20.61
2023-05-07T01:34:15.836Z,20.49
2023-05-07T01:36:42.175Z,20.47
2023-05-07T01:39:08.524Z,20.46
2023-05-07T01:41:34.889Z,20.53
2023-05-07T01:44:01.234Z,20.50
2023-05-07T01:46:27.636Z,20.52
2023-05-07T01:48:54.921Z,20.50
2023-05-07T01:51:21.289Z,20.50
2023-05-07T01:53:47.636Z,20.45
2023-05-07T01:56:13.969Z,20.41
2023-05-07T01:58:40.334Z,20.37
2023-05-07T02:01:06.684Z,20.36
2023-05-07T02:03:33.177Z,20.37
2023-05-07T02:05:59.594Z,20.40
2023-05-07T02:08:25.926Z,20.45
2023-05-07T02:10:52.258Z,20.50
2023-05-07T02:13:18.756Z,20.52
2023-05-07T02:15:45.180Z,20.60
2023-05-07T02:18:11.494Z,20.61
2023-05-07T02:20:37.847Z,20.63
2023-05-07T02:23:04.186Z,20.56
2023-05-07T02:25:30.532Z,20.53
2023-05-07T02:27:56.893Z,20.43
2023-05-07T02:30:23.264Z,20.38
2023-05-07T02:32:49.698Z,20.34
2023-05-07T02:35:16.083Z,20.32
2023-05-07T02:37:42.441Z,20.28
2023-05-07T02:40:08.905Z,20.26
2023-05-07T02:42:35.543Z,20.31
2023-05-07T02:45:01.939Z,20.28
2023-05-07T02:47:28.297Z,20.24
2023-05-07T02:49:54.683Z,20.21
2023-05-07T02:52:21.051Z,20.20
2023-05-07T02:54:47.369Z,20.21
2023-05-07T02:57:13.718Z,20.24
2023-05-07T02:59:40.055Z,20.20
2023-05-07T03:02:06.395Z,20.20
2023-05-07T03:04:32.788Z,20.17
2023-05-07T03:06:59.135Z,20.17
2023-05-07T03:09:25.580Z,20.14
2023-05-07T03:11:51.901Z,20.14
2023-05-07T03:14:18.257Z,20.13
2023-05-07T03:16:44.615Z,20.12
2023-05-07T03:19:11.122Z,20.09
2023-05-07T03:21:37.514Z,20.08
2023-05-07T03:24:03.860Z,20.02
2023-05-07T03:26:30.215Z,20.00
2023-05-07T03:28:56.570Z,19.95
2023-05-07T03:31:22.988Z,19.89
2023-05-07T03:33:49.369Z,19.94
2023-05-07T03:36:15.725Z,19.78
2023-05-07T03:38:42.070Z,19.74
2023-05-07T03:41:08.397Z,19.69
2023-05-07T03:43:34.736Z,19.67
2023-05-07T03:46:01.141Z,19.66
2023-05-07T03:48:27.499Z,19.66
2023-05-07T03:50:54.086Z,19.69
2023-05-07T03:53:20.441Z,19.66
2023-05-07T03:55:46.876Z,19.64
2023-05-07T03:58:13.249Z,19.64
2023-05-07T04:00:39.592Z,19.70
2023-05-07T04:03:06.057Z,19.76
2023-05-07T04:05:32.466Z,19.81
2023-05-07T04:07:58.812Z,19.82
2023-05-07T04:10:25.142Z,19.81
2023-05-07T04:12:51.531Z,19.80
2023-05-07T04:15:17.891Z,19.76
2023-05-07T04:17:44.255Z,19.75
2023-05-07T04:20:10.833Z,19.74
2023-05-07T04:22:37.307Z,19.75
2023-05-07T04:25:03.638Z,19.74
2023-05-07T04:27:30.006Z,19.78
2023-05-07T04:29:56.336Z,19.70
2023-05-07T04:32:22.675Z,19.65
2023-05-07T04:34:49.029Z,19.67
2023-05-07T04:37:15.404Z,19.72
2023-05-07T04:39:41.735Z,19.72
2023-05-07T04:42:08.087Z,19.76
2023-05-07T04:44:34.417Z,19.77
2023-05-07T04:47:00.743Z,19.82
2023-05-07T04:49:27.097Z,19.83
2023-05-07T04:51:53.438Z,19.89
2023-05-07T04:54:19.819Z,19.90
2023-05-07T04:56:46.143Z,19.84
2023-05-07T04:59:12.477Z,19.86
2023-05-07T05:01:38.886Z,19.88
2023-05-07T05:04:05.278Z,19.94
2023-05-07T05:06:31.675Z,19.94
2023-05-07T05:08:58.021Z,19.91
2023-05-07T05:11:24.391Z,19.90
2023-05-07T05:13:50.742Z,19.94
2023-05-07T05:16:17.137Z,19.96
2023-05-07T05:18:43.518Z,19.92
2023-05-07T05:21:09.895Z,19.95
2023-05-07T05:23:36.237Z,19.97
2023-05-07T05:26:02.727Z,19.96
2023-05-07T05:28:29.212Z,19.96
2023-05-07T05:30:55.560Z,19.84
2023-05-07T05:33:21.890Z,19.82
2023-05-07T05:35:48.231Z,19.83
2023-05-07T05:38:14.565Z,19.80
2023-05-07T05:40:40.865Z,19.79
2023-05-07T05:43:07.227Z,19.82
2023-05-07T05:45:33.568Z,19.84
2023-05-07T05:47:59.928Z,19.88
2023-05-07T05:50:26.310Z,19.83
2023-05-07T05:52:52.653Z,19.84
2023-05-07T05:55:19.034Z,19.90
2023-05-07T05:57:45.422Z,19.93
2023-05-07T06:00:11.978Z,19.95
2023-05-07T06:02:38.660Z,19.91
2023-05-07T06:05:05.251Z,19.97
2023-05-07T06:07:31.607Z,20.03
2023-05-07T06:09:58.104Z,20.07
2023-05-07T06:12:24.432Z,20.06
2023-05-07T06:14:50.843Z,20.05
2023-05-07T06:17:18.306Z,20.01
2023-05-07T06:19:46.520Z,20.00
2023-05-07T06:22:12.874Z,20.01
2023-05-07T06:24:39.246Z,20.09
2023-05-07T06:27:05.592Z,19.90
2023-05-07T06:29:31.946Z,19.85
2023-05-07T06:31:58.288Z,19.85
2023-05-07T06:34:24.682Z,19.86
2023-05-07T06:36:51.016Z,19.86
2023-05-07T06:39:17.345Z,19.76
2023-05-07T06:41:43.680Z,19.76
2023-05-07T06:44:10.190Z,19.64
2023-05-07T06:46:36.646Z,19.56
2023-05-07T06:49:02.991Z,19.41
2023-05-07T06:51:29.328Z,19.21
2023-05-07T06:53:55.695Z,19.09
2023-05-07T06:56:22.064Z,19.14
2023-05-07T06:58:48.415Z,19.15
2023-05-07T07:01:14.805Z,19.22
2023-05-07T07:03:41.202Z,19.19
2023-05-07T07:06:07.538Z,19.36
2023-05-07T07:08:33.863Z,19.51
2023-05-07T07:11:01.288Z,19.69
2023-05-07T07:13:27.686Z,19.79
2023-05-07T07:15:54.106Z,19.80
2023-05-07T07:18:20.476Z,19.87
2023-05-07T07:20:46.811Z,19.86
2023-05-07T07:23:13.189Z,19.87
2023-05-07T07:25:39.584Z,19.91
2023-05-07T07:28:05.914Z,19.76
2023-05-07T07:30:32.352Z,19.52
2023-05-07T07:32:58.749Z,19.67
2023-05-07T07:35:25.683Z,19.76
2023-05-07T07:37:52.244Z,19.81
2023-05-07T07:40:18.640Z,19.78
2023-05-07T07:42:44.967Z,19.74
2023-05-07T07:45:11.343Z,19.79
2023-05-07T07:47:37.708Z,19.78
2023-05-07T07:50:04.063Z,19.78
2023-05-07T07:52:30.376Z,19.69
2023-05-07T07:54:56.790Z,19.68
2023-05-07T07:57:23.198Z,19.71
2023-05-07T07:59:49.674Z,19.78
2023-05-07T08:02:16.127Z,19.61
2023-05-07T08:04:42.550Z,19.78
2023-05-07T08:07:09.007Z,19.87
2023-05-07T08:09:35.381Z,19.88
2023-05-07T08:12:01.782Z,19.90
2023-05-07T08:14:28.125Z,19.98
2023-05-07T08:16:54.505Z,20.04
2023-05-07T08:19:20.862Z,20.09
2023-05-07T08:21:47.304Z,20.17
2023-05-07T08:24:13.658Z,20.23
2023-05-07T08:26:40.042Z,20.35
2023-05-07T08:29:06.421Z,20.41
2023-05-07T08:31:32.750Z,20.37
2023-05-07T08:33:59.079Z,20.21
2023-05-07T08:36:25.563Z,20.07
2023-05-07T08:38:51.917Z,19.98
2023-05-07T08:41:18.253Z,19.95
2023-05-07T08:43:44.583Z,19.87
2023-05-07T08:46:10.941Z,19.83
2023-05-07T08:48:37.300Z,19.79
2023-05-07T08:51:03.626Z,19.80
2023-05-07T08:53:29.953Z,19.89
2023-05-07T08:55:56.290Z,19.92
2023-05-07T08:58:22.648Z,20.02
2023-05-07T09:00:49.012Z,20.11
2023-05-07T09:03:15.477Z,20.19
2023-05-07T09:05:41.903Z,20.25
2023-05-07T09:08:08.252Z,20.36
2023-05-07T09:10:34.604Z,20.46
2023-05-07T09:13:01.098Z,20.56
2023-05-07T09:15:27.506Z,20.59
2023-05-07T09:17:53.983Z,20.60
2023-05-07T09:20:20.391Z,20.60
2023-05-07T09:22:46.789Z,20.42
2023-05-07T09:25:13.429Z,20.40
2023-05-07T09:27:39.999Z,20.43
2023-05-07T09:30:06.355Z,20.42
2023-05-07T09:32:32.775Z,20.46
2023-05-07T09:34:59.191Z,20.44
2023-05-07T09:37:25.536Z,20.34
2023-05-07T09:39:51.894Z,20.29
2023-05-07T09:42:18.225Z,20.34
2023-05-07T09:44:44.554Z,20.48
2023-05-07T09:47:10.871Z,20.66
2023-05-07T09:49:37.264Z,20.85
2023-05-07T09:52:03.638Z,20.99
2023-05-07T09:54:29.965Z,21.17
2023-05-07T09:56:56.346Z,21.31
2023-05-07T09:59:22.716Z,21.33
2023-05-07T10:01:49.165Z,21.28
2023-05-07T10:04:15.526Z,21.22
2023-05-07T10:06:41.861Z,21.14
2023-05-07T10:09:08.228Z,21.03
2023-05-07T10:11:34.582Z,20.99
2023-05-07T10:14:02.744Z,21.14
2023-05-07T10:16:30.552Z,21.28
2023-05-07T10:18:56.982Z,21.38
2023-05-07T10:21:23.423Z,21.43
2023-05-07T10:23:49.823Z,21.44
2023-05-07T10:26:16.205Z,21.44
2023-05-07T10:28:42.552Z,21.47
2023-05-07T10:31:08.949Z,21.46
2023-05-07T10:33:35.313Z,21.43
2023-05-07T10:36:01.677Z,21.20
2023-05-07T10:38:28.012Z,21.15
2023-05-07T10:40:54.357Z,21.22
2023-05-07T10:43:20.687Z,21.30
2023-05-07T10:45:47.085Z,21.41
2023-05-07T10:48:28.777Z,21.43
2023-05-07T10:50:56.270Z,21.46
2023-05-07T10:53:22.636Z,21.53
2023-05-07T10:55:49.021Z,21.54
2023-05-07T10:58:30.308Z,21.65
2023-05-07T11:00:58.164Z,21.73
2023-05-07T11:03:24.513Z,21.83
2023-05-07T11:05:50.868Z,21.86
2023-05-07T11:08:17.210Z,21.94
2023-05-07T11:10:43.561Z,21.96
2023-05-07T11:13:09.958Z,21.99
2023-05-07T11:15:36.374Z,21.99
2023-05-07T11:18:02.837Z,22.02
2023-05-07T11:20:29.216Z,21.98
2023-05-07T11:22:56.583Z,21.99
2023-05-07T11:25:23.064Z,21.96
2023-05-07T11:27:49.498Z,21.88
2023-05-07T11:30:15.898Z,21.80
2023-05-07T11:32:42.340Z,21.71
2023-05-07T11:35:08.727Z,21.57
2023-05-07T11:37:35.205Z,21.50
2023-05-07T11:40:01.576Z,21.46
2023-05-07T11:42:27.947Z,21.15
2023-05-07T11:44:54.285Z,20.76
2023-05-07T11:47:20.733Z,20.89
2023-05-07T11:49:47.109Z,20.97
2023-05-07T11:52:13.463Z,20.81
2023-05-07T11:54:39.804Z,20.51
2023-05-07T11:57:06.167Z,19.98
2023-05-07T11:59:32.528Z,20.05
2023-05-07T12:01:58.895Z,20.10
2023-05-07T12:04:25.450Z,20.07
2023-05-07T12:06:51.857Z,20.02
2023-05-07T12:09:18.327Z,19.96
2023-05-07T12:11:44.742Z,19.85
2023-05-07T12:14:12.329Z,19.91
2023-05-07T12:16:38.965Z,19.87
2023-05-07T12:19:05.348Z,19.85
2023-05-07T12:21:31.694Z,19.87
2023-05-07T12:23:58.075Z,19.65
2023-05-07T12:26:24.438Z,19.86
2023-05-07T12:28:50.844Z,20.09
2023-05-07T12:31:17.363Z,20.34
2023-05-07T12:33:43.733Z,20.47
2023-05-07T12:36:10.088Z,20.53
2023-05-07T12:38:36.467Z,20.67
2023-05-07T12:41:02.844Z,20.76
2023-05-07T12:43:29.281Z,20.83
2023-05-07T12:45:55.857Z,20.88
2023-05-07T12:48:22.345Z,20.94
2023-05-07T12:50:48.839Z,21.00
2023-05-07T12:53:15.228Z,21.07
2023-05-07T12:55:41.645Z,21.11
2023-05-07T12:58:08.042Z,21.21
2023-05-07T13:00:34.461Z,21.28
2023-05-07T13:03:00.911Z,21.38
2023-05-07T13:05:27.336Z,21.37
2023-05-07T13:07:53.657Z,21.47
2023-05-07T13:10:20.040Z,21.35
2023-05-07T13:12:46.399Z,21.15
2023-05-07T13:15:12.867Z,20.91
2023-05-07T13:17:39.592Z,20.60
2023-05-07T13:20:06.127Z,20.51
2023-05-07T13:22:32.521Z,20.29
2023-05-07T13:24:58.877Z,20.33
2023-05-07T13:27:25.253Z,20.49
2023-05-07T13:29:51.597Z,20.54
2023-05-07T13:32:17.922Z,20.56
2023-05-07T13:34:44.357Z,20.35
2023-05-07T13:37:12.211Z,20.28
2023-05-07T13:39:38.761Z,20.14
2023-05-07T13:42:05.126Z,20.12
2023-05-07T13:44:31.493Z,20.10
2023-05-07T13:46:57.864Z,20.19
2023-05-07T13:49:24.255Z,20.16
2023-05-07T13:51:50.685Z,20.35
2023-05-07T13:54:17.047Z,20.51
2023-05-07T13:56:43.486Z,20.61
2023-05-07T13:59:09.824Z,20.64
2023-05-07T14:01:36.246Z,20.60
2023-05-07T14:04:02.703Z,20.51
2023-05-07T14:06:29.134Z,20.51
2023-05-07T14:08:55.554Z,20.48
2023-05-07T14:11:21.903Z,20.46
2023-05-07T14:13:48.271Z,20.43
2023-05-07T14:16:14.790Z,20.43
2023-05-07T14:18:41.254Z,20.41
2023-05-07T14:21:07.645Z,20.29
2023-05-07T14:23:33.974Z,20.34
2023-05-07T14:26:00.355Z,20.28
2023-05-07T14:28:26.806Z,20.27
2023-05-07T14:30:53.174Z,20.28
2023-05-07T14:33:19.546Z,20.33
2023-05-07T14:35:45.931Z,20.32
2023-05-07T14:38:12.256Z,20.33
2023-05-07T14:40:38.693Z,20.29
2023-05-07T14:43:05.061Z,20.24
2023-05-07T14:45:31.428Z,20.25
2023-05-07T14:47:57.860Z,20.28
2023-05-07T14:50:24.337Z,20.26
2023-05-07T14:52:50.695Z,20.24
2023-05-07T14:55:17.024Z,20.18
2023-05-07T14:57:43.435Z,20.21
2023-05-07T15:00:09.897Z,20.03
2023-05-07T15:02:36.306Z,20.01
2023-05-07T15:05:02.658Z,20.06
2023-05-07T15:07:29.123Z,20.01
2023-05-07T15:09:55.491Z,20.05
2023-05-07T15:12:22.000Z,20.10
2023-05-07T15:14:48.407Z,20.07
2023-05-07T15:17:14.789Z,20.06
2023-05-07T15:19:41.121Z,20.09
2023-05-07T15:22:07.568Z,20.11
2023-05-07T15:24:34.031Z,20.17
2023-05-07T15:27:00.453Z,20.17
2023-05-07T15:29:26.848Z,20.14
2023-05-07T15:31:53.305Z,20.14
2023-05-07T15:34:19.707Z,20.16
2023-05-07T15:36:46.095Z,20.21
2023-05-07T15:39:12.437Z,20.18
2023-05-07T15:41:38.774Z,20.19
2023-05-07T15:44:05.112Z,20.25
2023-05-07T15:46:31.445Z,20.26
2023-05-07T15:48:57.871Z,20.28
2023-05-07T15:51:24.238Z,20.30
2023-05-07T15:53:50.641Z,20.35
2023-05-07T15:56:17.040Z,20.39
2023-05-07T15:58:43.403Z,20.39
2023-05-07T16:01:09.772Z,20.37
2023-05-07T16:03:36.312Z,20.35
2023-05-07T16:06:02.758Z,20.35
2023-05-07T16:08:29.141Z,20.35
2023-05-07T16:10:55.672Z,20.32
2023-05-07T16:13:22.138Z,20.32
2023-05-07T16:15:48.622Z,20.25
2023-05-07T16:18:14.988Z,20.16
2023-05-07T16:20:41.360Z,20.12
2023-05-07T16:23:07.740Z,20.10
2023-05-07T16:25:34.087Z,20.09
2023-05-07T16:28:00.465Z,20.13
2023-05-07T16:30:26.825Z,20.12
2023-05-07T16:32:53.207Z,20.15
2023-05-07T16:35:19.612Z,20.18
2023-05-07T16:37:45.982Z,20.21
2023-05-07T16:40:13.563Z,20.21
2023-05-07T16:42:39.930Z,20.22
2023-05-07T16:45:06.369Z,20.15
2023-05-07T16:47:32.808Z,20.14
2023-05-07T16:49:59.146Z,20.14
2023-05-07T16:52:25.522Z,20.15
2023-05-07T16:54:51.880Z,20.15
2023-05-07T16:57:18.434Z,20.13
2023-05-07T16:59:44.865Z,20.11
2023-05-07T17:02:11.294Z,20.07
2023-05-07T17:04:37.733Z,19.93
2023-05-07T17:07:04.084Z,20.00
2023-05-07T17:09:30.426Z,20.01
2023-05-07T17:11:56.757Z,20.04
2023-05-07T17:14:23.140Z,20.03
2023-05-07T17:16:49.485Z,19.97
2023-05-07T17:19:15.938Z,19.90
2023-05-07T17:21:42.463Z,19.82
2023-05-07T17:24:08.780Z,19.76
2023-05-07T17:26:35.114Z,19.74
2023-05-07T17:29:01.480Z,19.71
2023-05-07T17:31:27.912Z,19.68
2023-05-07T17:33:54.334Z,19.66
2023-05-07T17:36:20.704Z,19.60
2023-05-07T17:38:47.030Z,19.57
2023-05-07T17:41:13.393Z,19.53
2023-05-07T17:43:39.806Z,19.40
2023-05-07T17:46:06.156Z,19.48
2023-05-07T17:48:32.585Z,19.42
2023-05-07T17:50:58.976Z,19.48
2023-05-07T17:53:25.306Z,19.39
2023-05-07T17:55:51.648Z,19.45
2023-05-07T17:58:18.010Z,19.42
2023-05-07T18:00:44.343Z,19.27
2023-05-07T18:03:10.802Z,19.33
2023-05-07T18:05:37.271Z,19.33
2023-05-07T18:08:03.640Z,19.35
2023-05-07T18:10:29.994Z,19.34
2023-05-07T18:12:56.406Z,19.36
2023-05-07T18:15:22.783Z,19.36
2023-05-07T18:17:49.165Z,19.40
2023-05-07T18:20:15.533Z,19.37
2023-05-07T18:22:41.867Z,19.32
2023-05-07T18:25:08.208Z,19.33
2023-05-07T18:27:34.618Z,19.24
2023-05-07T18:30:00.964Z,19.08
2023-05-07T18:32:27.422Z,19.10
2023-05-07T18:34:53.852Z,19.16
2023-05-07T18:37:20.181Z,19.03
2023-05-07T18:39:46.490Z,18.86
2023-05-07T18:42:12.821Z,18.98
2023-05-07T18:44:39.151Z,18.99
2023-05-07T18:47:05.522Z,19.05
2023-05-07T18:49:31.882Z,18.99
2023-05-07T18:51:58.228Z,18.91
2023-05-07T18:54:24.605Z,18.90
2023-05-07T18:56:50.948Z,18.89
2023-05-07T18:59:17.290Z,18.87
2023-05-07T19:01:43.767Z,18.87
2023-05-07T19:04:10.301Z,18.89
2023-05-07T19:06:36.666Z,18.90
2023-05-07T19:09:03.014Z,18.87
2023-05-07T19:11:29.574Z,18.82
2023-05-07T19:13:55.909Z,18.73
2023-05-07T19:16:22.287Z,18.73
2023-05-07T19:18:48.848Z,18.75
2023-05-07T19:21:15.169Z,18.65
2023-05-07T19:23:41.495Z,18.73
2023-05-07T19:26:07.882Z,18.80
2023-05-07T19:28:35.219Z,18.86
2023-05-07T19:31:02.524Z,18.91
2023-05-07T19:33:28.850Z,18.96
2023-05-07T19:35:55.204Z,18.99
2023-05-07T19:38:21.577Z,19.03
2023-05-07T19:40:47.900Z,18.99
2023-05-07T19:43:14.214Z,19.00
2023-05-07T19:45:40.534Z,18.88
2023-05-07T19:48:06.899Z,18.90
2023-05-07T19:50:33.285Z,18.97
2023-05-07T19:52:59.615Z,19.02
2023-05-07T19:55:25.988Z,19.06
2023-05-07T19:57:52.343Z,19.10
2023-05-07T20:00:18.664Z,19.10
2023-05-07T20:02:45.074Z,19.09
2023-05-07T20:05:11.473Z,19.01
2023-05-07T20:07:37.808Z,18.98
2023-05-07T20:10:04.197Z,18.96
2023-05-07T20:12:30.533Z,18.95
2023-05-07T20:14:56.911Z,18.73
2023-05-07T20:17:23.272Z,18.81
2023-05-07T20:19:49.609Z,18.81
2023-05-07T20:22:15.953Z,18.83
2023-05-07T20:24:42.295Z,18.72
2023-05-07T20:27:08.619Z,18.79
2023-05-07T20:29:34.930Z,18.76
2023-05-07T20:32:01.399Z,18.75
2023-05-07T20:34:27.815Z,18.73
2023-05-07T20:36:54.148Z,18.70
2023-05-07T20:39:20.495Z,18.68
2023-05-07T20:41:46.825Z,18.66
2023-05-07T20:44:13.162Z,18.68
2023-05-07T20:46:39.534Z,18.73
2023-05-07T20:49:05.929Z,18.65
2023-05-07T20:51:32.239Z,18.68
2023-05-07T20:53:58.596Z,18.74
2023-05-07T20:56:24.955Z,18.76
2023-05-07T20:58:51.333Z,18.81
2023-05-07T21:01:17.757Z,18.81
2023-05-07T21:03:44.172Z,18.79
2023-05-07T21:06:10.486Z,18.80
2023-05-07T21:08:36.916Z,18.66
2023-05-07T21:11:03.294Z,18.55
2023-05-07T21:13:29.701Z,18.72
2023-05-07T21:15:56.054Z,18.78
2023-05-07T21:18:22.461Z,18.77
2023-05-07T21:20:48.814Z,18.76
2023-05-07T21:23:15.157Z,18.76
2023-05-07T21:25:41.682Z,18.70
2023-05-07T21:28:08.062Z,18.66
2023-05-07T21:30:34.459Z,18.58
2023-05-07T21:35:27.211Z,18.49
2023-05-07T21:37:53.588Z,18.51
2023-05-07T21:40:19.950Z,18.47
2023-05-07T21:42:46.301Z,18.48
2023-05-07T21:45:12.640Z,18.44
2023-05-07T21:47:39.159Z,18.42
2023-05-07T21:50:05.500Z,18.27
2023-05-07T21:52:31.931Z,18.20
2023-05-07T21:54:58.361Z,18.20
2023-05-07T21:57:24.709Z,18.12
2023-05-07T21:59:51.106Z,18.12
2023-05-07T22:02:17.481Z,18.15
2023-05-07T22:04:43.901Z,18.14
2023-05-07T22:07:10.227Z,18.16
2023-05-07T22:09:36.561Z,18.12
2023-05-07T22:12:02.902Z,18.12
2023-05-07T22:14:29.230Z,18.13
2023-05-07T22:16:55.646Z,18.07
2023-05-07T22:19:22.083Z,17.99
2023-05-07T22:21:48.415Z,17.92
2023-05-07T22:24:14.738Z,17.90
2023-05-07T22:26:41.092Z,17.81
2023-05-07T22:29:07.527Z,17.82
2023-05-07T22:31:33.906Z,17.83
2023-05-07T22:34:00.301Z,17.82
2023-05-07T22:36:28.574Z,17.79
2023-05-07T22:38:54.882Z,17.77
2023-05-07T22:41:21.223Z,17.73
2023-05-07T22:43:47.647Z,17.72
2023-05-07T22:46:14.222Z,17.73
2023-05-07T22:48:40.754Z,17.74
2023-05-07T22:51:07.074Z,17.71
2023-05-07T22:53:33.435Z,17.74
2023-05-07T22:55:59.853Z,17.70
2023-05-07T22:58:26.276Z,17.78
2023-05-07T23:00:52.718Z,17.82
2023-05-07T23:03:19.362Z,17.85
2023-05-07T23:05:45.851Z,17.84
2023-05-07T23:08:12.194Z,17.87
2023-05-07T23:10:38.578Z,17.83
2023-05-07T23:13:05.072Z,17.90
2023-05-07T23:15:31.539Z,17.98
2023-05-07T23:17:57.905Z,17.99
2023-05-07T23:20:24.299Z,18.01
2023-05-07T23:22:50.663Z,18.02
2023-05-07T23:25:17.092Z,18.05
2023-05-07T23:27:43.426Z,18.05
2023-05-07T23:30:09.967Z,18.09
2023-05-07T23:32:36.431Z,18.10
2023-05-07T23:35:02.797Z,18.15
2023-05-07T23:37:29.145Z,18.16
2023-05-07T23:39:55.507Z,18.20
2023-05-07T23:42:21.853Z,18.19
2023-05-07T23:44:48.164Z,18.18
2023-05-07T23:47:14.518Z,18.13
2023-05-07T23:49:40.866Z,18.12
2023-05-07T23:52:07.195Z,18.15
2023-05-07T23:54:33.509Z,18.14
2023-05-07T23:56:59.876Z,18.15
2023-05-07T23:59:26.278Z,18.18
